createdAt,value
2018-09-11T00:01:43.522Z,76.50
2018-09-11T00:04:11.837Z,77.60
2018-09-11T00:06:40.066Z,76.80
2018-09-11T00:09:10.008Z,77.00
2018-09-11T00:11:38.213Z,77.20
2018-09-11T00:14:06.645Z,77.40
2018-09-11T00:16:34.846Z,77.80
2018-09-11T00:19:03.070Z,77.90
2018-09-11T00:21:31.270Z,78.00
2018-09-11T00:23:59.506Z,78.00
2018-09-11T00:26:27.761Z,78.30
2018-09-11T00:28:55.976Z,78.30
2018-09-11T00:31:24.270Z,78.30
2018-09-11T00:33:52.468Z,78.50
2018-09-11T00:36:20.678Z,78.60
2018-09-11T00:38:48.883Z,78.30
2018-09-11T00:41:17.098Z,78.70
2018-09-11T00:43:45.304Z,78.60
2018-09-11T00:46:13.514Z,78.80
2018-09-11T00:48:41.722Z,78.70
2018-09-11T00:51:09.923Z,78.70
2018-09-11T00:53:38.121Z,78.70
2018-09-11T00:56:06.637Z,78.70
2018-09-11T00:58:34.922Z,78.70
2018-09-11T01:01:03.130Z,78.80
2018-09-11T01:03:31.343Z,79.00
2018-09-11T01:05:59.520Z,79.00
2018-09-11T01:08:27.753Z,79.00
2018-09-11T01:10:55.996Z,79.30
2018-09-11T01:13:24.192Z,79.20
2018-09-11T01:15:52.393Z,79.20
2018-09-11T01:18:20.614Z,79.10
2018-09-11T01:20:48.809Z,79.00
2018-09-11T01:23:16.999Z,79.00
2018-09-11T01:25:45.182Z,79.00
2018-09-11T01:28:13.399Z,78.80
2018-09-11T01:30:41.599Z,78.80
2018-09-11T01:33:09.807Z,78.70
2018-09-11T01:35:38.014Z,78.70
2018-09-11T01:38:06.329Z,78.40
2018-09-11T01:40:34.514Z,78.80
2018-09-11T01:43:02.779Z,78.10
2018-09-11T01:45:30.965Z,78.00
2018-09-11T01:47:59.153Z,77.90
2018-09-11T01:50:27.321Z,77.70
2018-09-11T01:52:55.569Z,77.60
2018-09-11T01:55:23.782Z,77.80
2018-09-11T01:57:52.005Z,77.90
2018-09-11T02:00:21.325Z,78.00
2018-09-11T02:02:49.545Z,77.90
2018-09-11T02:05:17.970Z,78.00
2018-09-11T02:07:46.179Z,78.10
2018-09-11T02:10:14.391Z,78.50
2018-09-11T02:12:42.581Z,78.60
2018-09-11T02:15:11.484Z,78.60
2018-09-11T02:17:40.199Z,78.40
2018-09-11T02:20:08.500Z,78.50
2018-09-11T02:22:36.798Z,78.50
2018-09-11T02:25:05.513Z,78.80
2018-09-11T02:27:33.890Z,79.00
2018-09-11T02:30:02.142Z,79.00
2018-09-11T02:32:30.356Z,79.30
2018-09-11T02:34:58.589Z,79.50
2018-09-11T02:37:26.800Z,79.70
2018-09-11T02:39:55.001Z,79.80
2018-09-11T02:42:23.197Z,79.80
2018-09-11T02:44:51.431Z,79.60
2018-09-11T02:47:19.646Z,79.70
2018-09-11T02:49:47.924Z,79.50
2018-09-11T02:52:16.201Z,79.40
2018-09-11T02:54:44.618Z,79.40
2018-09-11T02:57:12.827Z,79.30
2018-09-11T02:59:41.010Z,79.30
2018-09-11T03:04:44.166Z,79.30
2018-09-11T03:07:12.398Z,79.30
2018-09-11T03:09:40.640Z,79.40
2018-09-11T03:12:08.845Z,79.40
2018-09-11T03:14:37.045Z,79.50
2018-09-11T03:17:05.282Z,79.60
2018-09-11T03:19:33.515Z,79.70
2018-09-11T03:22:01.682Z,79.70
2018-09-11T03:24:29.875Z,79.90
2018-09-11T03:26:58.081Z,79.80
2018-09-11T03:29:26.274Z,79.80
2018-09-11T03:31:54.491Z,79.90
2018-09-11T03:34:22.682Z,79.90
2018-09-11T03:36:50.981Z,79.90
2018-09-11T03:39:19.199Z,80.00
2018-09-11T03:41:47.394Z,80.30
2018-09-11T03:44:15.672Z,80.40
2018-09-11T03:46:43.841Z,80.60
2018-09-11T03:49:12.024Z,80.70
2018-09-11T03:51:40.223Z,80.90
2018-09-11T03:54:08.430Z,80.90
2018-09-11T03:56:36.723Z,81.10
2018-09-11T03:59:05.052Z,81.30
2018-09-11T04:01:33.250Z,81.50
2018-09-11T04:04:01.434Z,81.50
2018-09-11T04:06:29.658Z,81.70
2018-09-11T04:08:57.845Z,81.90
2018-09-11T04:11:26.063Z,82.10
2018-09-11T04:13:54.274Z,82.10
2018-09-11T04:16:22.450Z,82.10
2018-09-11T04:18:50.769Z,82.30
2018-09-11T04:21:18.978Z,82.30
2018-09-11T04:23:47.289Z,82.40
2018-09-11T04:26:15.464Z,82.50
2018-09-11T04:28:43.677Z,82.60
2018-09-11T04:31:11.906Z,82.80
2018-09-11T04:33:40.120Z,82.90
2018-09-11T04:36:08.303Z,83.00
2018-09-11T04:38:36.498Z,83.00
2018-09-11T04:41:04.791Z,83.10
2018-09-11T04:43:33.050Z,83.20
2018-09-11T04:46:01.379Z,83.40
2018-09-11T04:48:29.588Z,83.50
2018-09-11T04:50:57.808Z,83.50
2018-09-11T04:53:26.169Z,83.40
2018-09-11T04:55:54.411Z,83.30
2018-09-11T04:58:22.644Z,83.40
2018-09-11T05:00:50.935Z,83.50
2018-09-11T05:03:26.090Z,83.40
2018-09-11T05:05:54.669Z,83.30
2018-09-11T05:08:22.844Z,84.20
2018-09-11T05:10:51.730Z,84.60
2018-09-11T05:13:19.983Z,84.00
2018-09-11T05:15:48.239Z,83.90
2018-09-11T05:18:16.459Z,83.70
2018-09-11T05:20:44.658Z,83.60
2018-09-11T05:23:13.122Z,83.20
2018-09-11T05:25:41.330Z,82.80
2018-09-11T05:28:09.577Z,82.10
2018-09-11T05:30:38.279Z,81.70
2018-09-11T05:33:06.808Z,81.60
2018-09-11T05:35:35.001Z,83.10
2018-09-11T05:38:03.213Z,81.50
2018-09-11T05:40:31.479Z,79.90
2018-09-11T05:42:59.723Z,78.80
2018-09-11T05:45:27.911Z,78.70
2018-09-11T05:47:56.133Z,78.00
2018-09-11T05:50:24.374Z,77.70
2018-09-11T05:52:52.578Z,77.60
2018-09-11T05:55:20.811Z,76.90
2018-09-11T05:57:49.009Z,77.00
2018-09-11T06:00:17.219Z,77.60
2018-09-11T06:02:45.486Z,78.00
2018-09-11T06:05:13.717Z,78.30
2018-09-11T06:07:41.915Z,78.50
2018-09-11T06:10:10.140Z,79.00
2018-09-11T06:12:38.392Z,79.40
2018-09-11T06:15:06.598Z,79.60
2018-09-11T06:17:34.786Z,80.00
2018-09-11T06:20:03.002Z,79.90
2018-09-11T06:22:31.199Z,79.90
2018-09-11T06:24:59.460Z,80.00
2018-09-11T06:27:27.688Z,79.90
2018-09-11T06:29:55.905Z,79.70
2018-09-11T06:32:24.184Z,79.80
2018-09-11T06:34:52.401Z,79.90
2018-09-11T06:37:20.611Z,79.60
2018-09-11T06:39:48.810Z,79.10
2018-09-11T06:42:17.005Z,78.90
2018-09-11T06:44:45.259Z,78.90
2018-09-11T06:47:13.457Z,79.00
2018-09-11T06:49:41.641Z,78.90
2018-09-11T06:52:09.894Z,78.80
2018-09-11T06:54:38.123Z,78.90
2018-09-11T06:57:06.332Z,78.70
2018-09-11T06:59:34.578Z,78.50
2018-09-11T07:02:02.855Z,78.50
2018-09-11T07:04:31.033Z,78.50
2018-09-11T07:06:59.240Z,78.50
2018-09-11T07:09:27.420Z,78.20
2018-09-11T07:11:55.655Z,77.80
2018-09-11T07:14:23.846Z,78.50
2018-09-11T07:16:52.052Z,77.30
2018-09-11T07:19:20.277Z,77.10
2018-09-11T07:21:48.504Z,76.90
2018-09-11T07:24:16.702Z,76.80
2018-09-11T07:26:44.998Z,76.30
2018-09-11T07:29:13.338Z,75.90
2018-09-11T07:31:41.530Z,75.70
2018-09-11T07:34:09.824Z,75.80
2018-09-11T07:36:38.055Z,75.80
2018-09-11T07:39:08.163Z,75.80
2018-09-11T07:41:36.370Z,75.60
2018-09-11T07:44:04.541Z,75.20
2018-09-11T07:46:32.869Z,75.00
2018-09-11T07:49:01.148Z,75.00
2018-09-11T07:51:29.366Z,74.70
2018-09-11T07:53:57.633Z,74.50
2018-09-11T07:56:26.273Z,74.40
2018-09-11T07:58:54.483Z,74.50
2018-09-11T08:01:22.695Z,74.80
2018-09-11T08:03:51.113Z,75.00
2018-09-11T08:06:19.452Z,74.90
2018-09-11T08:08:47.698Z,74.70
2018-09-11T08:11:16.113Z,74.80
2018-09-11T08:13:44.453Z,72.80
2018-09-11T08:16:12.769Z,68.50
2018-09-11T08:18:40.986Z,62.30
2018-09-11T08:21:09.183Z,58.80
2018-09-11T08:23:37.379Z,56.80
2018-09-11T08:26:06.078Z,56.60
2018-09-11T08:28:34.529Z,57.30
2018-09-11T08:31:02.742Z,58.40
2018-09-11T08:33:30.937Z,59.80
2018-09-11T08:35:59.175Z,61.30
2018-09-11T08:38:27.421Z,62.30
2018-09-11T08:40:55.703Z,63.30
2018-09-11T08:43:23.842Z,64.20
2018-09-11T08:45:52.206Z,65.10
2018-09-11T08:48:20.499Z,65.70
2018-09-11T08:50:48.732Z,66.10
2018-09-11T08:53:16.942Z,66.50
2018-09-11T08:55:45.138Z,66.70
2018-09-11T08:58:13.366Z,66.80
2018-09-11T09:00:41.569Z,66.70
2018-09-11T09:03:10.039Z,67.00
2018-09-11T09:05:38.258Z,66.70
2018-09-11T09:08:06.563Z,66.30
2018-09-11T09:10:34.766Z,66.80
2018-09-11T09:13:02.978Z,66.90
2018-09-11T09:15:31.320Z,66.60
2018-09-11T09:17:59.546Z,66.70
2018-09-11T09:20:27.952Z,66.40
2018-09-11T09:22:56.334Z,66.40
2018-09-11T09:25:24.815Z,66.80
2018-09-11T09:27:55.043Z,66.20
2018-09-11T09:30:23.248Z,65.80
2018-09-11T09:32:51.471Z,65.30
2018-09-11T09:35:20.079Z,64.60
2018-09-11T09:37:48.394Z,64.10
2018-09-11T09:40:16.593Z,63.90
2018-09-11T09:42:44.827Z,63.50
2018-09-11T09:45:13.043Z,63.30
2018-09-11T09:47:41.286Z,63.00
2018-09-11T09:50:09.527Z,62.70
2018-09-11T09:52:38.044Z,62.20
2018-09-11T09:55:06.335Z,62.00
2018-09-11T09:57:34.576Z,62.10
2018-09-11T10:00:03.110Z,61.60
2018-09-11T10:02:31.329Z,61.10
2018-09-11T10:05:01.047Z,59.90
2018-09-11T10:07:29.286Z,59.80
2018-09-11T10:09:57.687Z,59.70
2018-09-11T10:12:25.947Z,58.80
2018-09-11T10:14:54.273Z,59.10
2018-09-11T10:17:22.549Z,58.90
2018-09-11T10:19:53.033Z,59.20
2018-09-11T10:22:21.233Z,59.10
2018-09-11T10:24:49.442Z,59.00
2018-09-11T10:27:18.184Z,58.80
2018-09-11T10:29:46.381Z,58.40
2018-09-11T10:32:15.008Z,57.70
2018-09-11T10:34:43.320Z,57.80
2018-09-11T10:37:11.581Z,57.80
2018-09-11T10:39:41.042Z,57.70
2018-09-11T10:42:09.300Z,57.70
2018-09-11T10:44:37.601Z,57.70
2018-09-11T10:47:05.896Z,56.90
2018-09-11T10:49:34.146Z,56.20
2018-09-11T10:52:02.379Z,55.80
2018-09-11T10:54:30.634Z,55.60
2018-09-11T10:56:59.107Z,55.30
2018-09-11T10:59:27.362Z,55.00
2018-09-11T11:01:55.808Z,54.80
2018-09-11T11:04:24.148Z,55.10
2018-09-11T11:06:52.369Z,54.70
2018-09-11T11:09:20.598Z,53.80
2018-09-11T11:11:48.862Z,53.60
2018-09-11T11:14:17.068Z,53.20
2018-09-11T11:16:45.707Z,52.40
2018-09-11T11:19:13.919Z,52.20
2018-09-11T11:21:42.148Z,52.60
2018-09-11T11:24:10.614Z,52.00
2018-09-11T11:26:38.868Z,52.20
2018-09-11T11:29:07.109Z,52.50
2018-09-11T11:31:35.370Z,52.50
2018-09-11T11:34:03.939Z,52.30
2018-09-11T11:36:32.236Z,51.90
2018-09-11T11:39:00.770Z,51.20
2018-09-11T11:41:29.134Z,50.40
2018-09-11T11:43:57.420Z,50.30
2018-09-11T11:46:25.837Z,49.70
2018-09-11T11:48:54.422Z,49.90
2018-09-11T11:51:22.824Z,50.20
2018-09-11T11:53:51.059Z,50.00
2018-09-11T11:56:19.338Z,50.00
2018-09-11T11:58:47.550Z,49.90
2018-09-11T12:01:15.786Z,49.60
2018-09-11T12:03:44.179Z,49.70
2018-09-11T12:06:12.517Z,48.80
2018-09-11T12:08:40.958Z,48.80
2018-09-11T12:11:09.159Z,48.90
2018-09-11T12:13:37.482Z,49.50
2018-09-11T12:16:05.938Z,49.50
2018-09-11T12:18:34.111Z,49.00
2018-09-11T12:21:02.367Z,49.30
2018-09-11T12:23:30.592Z,49.00
2018-09-11T12:25:58.797Z,48.80
2018-09-11T12:28:27.050Z,48.10
2018-09-11T12:30:55.504Z,48.10
2018-09-11T12:33:23.773Z,48.10
2018-09-11T12:35:52.002Z,48.80
2018-09-11T12:38:20.268Z,48.50
2018-09-11T12:40:48.548Z,47.30
2018-09-11T12:43:16.802Z,47.90
2018-09-11T12:45:45.651Z,48.20
2018-09-11T12:48:14.106Z,47.50
2018-09-11T12:50:42.185Z,47.90
2018-09-11T12:53:10.438Z,46.90
2018-09-11T12:55:38.639Z,46.10
2018-09-11T12:58:06.876Z,46.30
2018-09-11T13:00:35.094Z,46.10
2018-09-11T13:03:03.314Z,45.90
2018-09-11T13:05:31.547Z,45.20
2018-09-11T13:07:59.828Z,45.20
2018-09-11T13:10:28.066Z,45.30
2018-09-11T13:12:56.346Z,45.20
2018-09-11T13:15:24.550Z,45.10
2018-09-11T13:17:52.763Z,44.90
2018-09-11T13:20:21.170Z,44.00
2018-09-11T13:22:49.451Z,43.40
2018-09-11T13:25:17.720Z,43.70
2018-09-11T13:27:46.234Z,43.80
2018-09-11T13:30:14.482Z,43.80
2018-09-11T13:32:42.732Z,43.70
2018-09-11T13:35:10.936Z,44.80
2018-09-11T13:37:39.251Z,44.70
2018-09-11T13:40:07.477Z,44.00
2018-09-11T13:42:35.782Z,43.80
2018-09-11T13:45:03.981Z,43.90
2018-09-11T13:47:32.399Z,43.90
2018-09-11T13:50:00.623Z,43.80
2018-09-11T13:52:28.854Z,43.40
2018-09-11T13:54:57.089Z,42.90
2018-09-11T13:57:25.740Z,43.50
2018-09-11T13:59:53.984Z,43.50
2018-09-11T14:02:22.238Z,43.20
2018-09-11T14:04:50.464Z,43.00
2018-09-11T14:07:18.852Z,42.80
2018-09-11T14:09:47.135Z,42.70
2018-09-11T14:12:15.443Z,43.00
2018-09-11T14:14:43.749Z,43.60
2018-09-11T14:17:12.029Z,43.20
2018-09-11T14:19:40.291Z,43.50
2018-09-11T14:22:09.006Z,43.60
2018-09-11T14:24:37.230Z,43.30
2018-09-11T14:27:05.527Z,42.90
2018-09-11T14:29:33.839Z,42.70
2018-09-11T14:32:02.076Z,42.40
2018-09-11T14:34:30.789Z,41.90
2018-09-11T14:36:59.340Z,42.00
2018-09-11T14:39:27.546Z,42.10
2018-09-11T14:41:55.825Z,41.90
2018-09-11T14:44:24.097Z,42.00
2018-09-11T14:46:52.274Z,41.90
2018-09-11T14:49:20.468Z,41.50
2018-09-11T14:51:48.949Z,40.80
2018-09-11T14:54:17.176Z,41.10
2018-09-11T14:56:45.544Z,41.00
2018-09-11T14:59:13.798Z,40.10
2018-09-11T15:01:42.162Z,39.90
2018-09-11T15:04:10.789Z,40.30
2018-09-11T15:06:39.130Z,41.30
2018-09-11T15:09:08.683Z,41.50
2018-09-11T15:11:37.225Z,41.50
2018-09-11T15:14:05.471Z,42.30
2018-09-11T15:16:33.797Z,41.60
2018-09-11T15:19:02.041Z,41.30
2018-09-11T15:21:30.363Z,40.80
2018-09-11T15:23:58.619Z,40.80
2018-09-11T15:26:27.002Z,41.00
2018-09-11T15:28:55.302Z,41.00
2018-09-11T15:31:23.613Z,41.10
2018-09-11T15:33:52.174Z,41.30
2018-09-11T15:36:20.519Z,41.40
2018-09-11T15:38:48.785Z,41.60
2018-09-11T15:41:17.050Z,41.40
2018-09-11T15:43:45.312Z,41.40
2018-09-11T15:46:13.832Z,41.60
2018-09-11T15:48:42.112Z,41.80
2018-09-11T15:51:10.307Z,41.80
2018-09-11T15:53:38.584Z,41.60
2018-09-11T15:56:06.995Z,41.10
2018-09-11T15:58:35.214Z,40.90
2018-09-11T16:01:03.449Z,41.00
2018-09-11T16:03:31.851Z,41.30
2018-09-11T16:06:00.124Z,41.50
2018-09-11T16:08:28.381Z,41.70
2018-09-11T16:10:56.710Z,41.70
2018-09-11T16:13:25.025Z,41.90
2018-09-11T16:15:53.330Z,41.90
2018-09-11T16:18:21.657Z,42.60
2018-09-11T16:20:49.899Z,42.80
2018-09-11T16:23:18.136Z,43.00
2018-09-11T16:25:46.350Z,43.20
2018-09-11T16:28:14.618Z,42.90
2018-09-11T16:30:42.920Z,43.30
2018-09-11T16:33:11.166Z,43.60
2018-09-11T16:35:39.594Z,43.60
2018-09-11T16:38:07.868Z,43.70
2018-09-11T16:40:36.102Z,43.70
2018-09-11T16:43:04.443Z,43.70
2018-09-11T16:45:32.708Z,43.80
2018-09-11T16:48:01.091Z,43.90
2018-09-11T16:50:29.367Z,43.90
2018-09-11T16:52:57.626Z,44.00
2018-09-11T16:55:25.862Z,44.10
2018-09-11T16:57:54.226Z,44.00
2018-09-11T17:00:22.514Z,43.70
2018-09-11T17:02:50.770Z,43.60
2018-09-11T17:05:19.062Z,43.70
2018-09-11T17:07:47.646Z,43.50
2018-09-11T17:10:15.979Z,43.60
2018-09-11T17:12:44.832Z,43.60
2018-09-11T17:15:13.220Z,43.80
2018-09-11T17:17:41.464Z,43.70
2018-09-11T17:20:09.703Z,43.60
2018-09-11T17:22:37.882Z,43.80
2018-09-11T17:25:06.091Z,43.80
2018-09-11T17:27:34.338Z,43.90
2018-09-11T17:30:02.629Z,44.10
2018-09-11T17:32:30.838Z,44.50
2018-09-11T17:34:59.054Z,44.60
2018-09-11T17:37:27.290Z,44.90
2018-09-11T17:39:55.517Z,45.00
2018-09-11T17:42:23.783Z,45.20
2018-09-11T17:44:52.398Z,45.30
2018-09-11T17:47:20.881Z,45.50
2018-09-11T17:49:49.140Z,45.50
2018-09-11T17:52:17.634Z,45.80
2018-09-11T17:54:46.122Z,46.10
2018-09-11T17:57:14.700Z,46.20
2018-09-11T17:59:45.962Z,46.30
2018-09-11T18:02:14.319Z,46.40
2018-09-11T18:04:42.575Z,46.60
2018-09-11T18:07:11.576Z,46.80
2018-09-11T18:09:39.892Z,47.00
2018-09-11T18:12:08.686Z,47.10
2018-09-11T18:14:37.005Z,47.30
2018-09-11T18:17:05.380Z,47.50
2018-09-11T18:19:33.695Z,47.60
2018-09-11T18:22:01.948Z,47.70
2018-09-11T18:24:31.091Z,47.90
2018-09-11T18:27:00.247Z,48.00
2018-09-11T18:29:28.547Z,48.10
2018-09-11T18:31:56.946Z,48.30
2018-09-11T18:34:25.261Z,48.50
2018-09-11T18:36:53.799Z,48.60
2018-09-11T18:39:22.510Z,48.80
2018-09-11T18:41:50.807Z,48.90
2018-09-11T18:44:19.246Z,49.10
2018-09-11T18:46:48.147Z,49.20
2018-09-11T18:49:16.554Z,48.70
2018-09-11T18:51:44.944Z,49.50
2018-09-11T18:54:19.781Z,49.70
2018-09-11T18:56:48.099Z,50.00
2018-09-11T18:59:16.356Z,50.30
2018-09-11T19:01:44.913Z,50.50
2018-09-11T19:04:13.356Z,50.80
2018-09-11T19:06:41.753Z,50.80
2018-09-11T19:09:11.279Z,51.10
2018-09-11T19:11:39.556Z,51.10
2018-09-11T19:14:08.615Z,51.30
2018-09-11T19:16:37.778Z,51.50
2018-09-11T19:19:06.382Z,51.80
2018-09-11T19:21:34.791Z,52.10
2018-09-11T19:24:03.043Z,52.90
2018-09-11T19:26:31.307Z,52.50
2018-09-11T19:28:59.777Z,52.60
2018-09-11T19:31:28.232Z,52.60
2018-09-11T19:33:56.513Z,52.50
2018-09-11T19:36:25.045Z,52.90
2018-09-11T19:38:53.867Z,53.10
2018-09-11T19:41:23.050Z,53.40
2018-09-11T19:43:52.265Z,53.60
2018-09-11T19:46:20.553Z,53.70
2018-09-11T19:48:48.810Z,53.80
2018-09-11T19:51:17.075Z,53.90
2018-09-11T19:53:46.271Z,54.20
2018-09-11T19:56:14.690Z,54.40
2018-09-11T19:58:43.815Z,54.60
2018-09-11T20:01:12.169Z,54.70
2018-09-11T20:03:41.151Z,54.70
2018-09-11T20:06:09.878Z,54.90
2018-09-11T20:08:40.914Z,55.00
2018-09-11T20:11:10.112Z,55.20
2018-09-11T20:13:38.359Z,55.20
2018-09-11T20:16:06.633Z,55.20
2018-09-11T20:18:35.023Z,55.40
2018-09-11T20:21:03.229Z,55.40
2018-09-11T20:23:31.690Z,55.50
2018-09-11T20:25:59.935Z,55.50
2018-09-11T20:28:28.231Z,55.80
2018-09-11T20:30:56.481Z,55.70
2018-09-11T20:33:24.741Z,55.70
2018-09-11T20:35:53.018Z,55.80
2018-09-11T20:38:21.334Z,55.80
2018-09-11T20:40:49.611Z,56.00
2018-09-11T20:43:17.901Z,56.10
2018-09-11T20:45:46.228Z,56.10
2018-09-11T20:48:14.518Z,56.30
2018-09-11T20:50:42.954Z,56.40
2018-09-11T20:53:11.174Z,56.70
2018-09-11T20:55:39.376Z,56.80
2018-09-11T20:58:07.672Z,56.80
2018-09-11T21:00:35.914Z,56.60
2018-09-11T21:03:04.151Z,56.60
2018-09-11T21:05:32.447Z,56.80
2018-09-11T21:08:00.668Z,56.60
2018-09-11T21:10:28.940Z,56.70
2018-09-11T21:12:57.242Z,56.80
2018-09-11T21:15:25.441Z,56.90
2018-09-11T21:17:53.733Z,57.10
2018-09-11T21:20:22.026Z,57.10
2018-09-11T21:22:50.715Z,57.20
2018-09-11T21:25:18.963Z,57.30
2018-09-11T21:27:47.202Z,57.40
2018-09-11T21:30:15.497Z,57.60
2018-09-11T21:32:43.792Z,57.70
2018-09-11T21:35:12.068Z,57.80
2018-09-11T21:37:40.274Z,57.90
2018-09-11T21:40:08.518Z,58.00
2018-09-11T21:42:36.950Z,58.20
2018-09-11T21:45:05.417Z,58.40
2018-09-11T21:47:34.682Z,58.50
2018-09-11T21:50:02.985Z,58.50
2018-09-11T21:52:31.262Z,58.60
2018-09-11T21:54:59.479Z,58.80
2018-09-11T21:57:27.711Z,58.90
2018-09-11T21:59:55.978Z,59.10
2018-09-11T22:02:24.265Z,59.10
2018-09-11T22:04:52.509Z,59.30
2018-09-11T22:07:20.737Z,59.50
2018-09-11T22:09:48.987Z,59.80
2018-09-11T22:12:17.320Z,60.50
2018-09-11T22:14:45.541Z,60.00
2018-09-11T22:17:13.781Z,60.10
2018-09-11T22:19:42.046Z,60.10
2018-09-11T22:22:10.305Z,60.10
2018-09-11T22:24:38.567Z,60.10
2018-09-11T22:27:06.768Z,60.40
2018-09-11T22:29:35.012Z,60.70
2018-09-11T22:32:03.279Z,60.70
2018-09-11T22:34:31.541Z,60.90
2018-09-11T22:36:59.890Z,61.20
2018-09-11T22:39:28.147Z,61.20
2018-09-11T22:41:56.381Z,61.50
2018-09-11T22:44:24.597Z,61.80
2018-09-11T22:46:52.809Z,62.10
2018-09-11T22:49:21.018Z,62.30
2018-09-11T22:51:49.241Z,62.40
2018-09-11T22:54:17.447Z,62.50
2018-09-11T22:56:45.685Z,62.80
2018-09-11T22:59:13.905Z,63.10
2018-09-11T23:01:42.110Z,63.20
2018-09-11T23:04:10.323Z,63.40
2018-09-11T23:06:38.657Z,63.60
2018-09-11T23:09:08.562Z,64.00
2018-09-11T23:11:36.855Z,64.10
2018-09-11T23:14:05.070Z,64.20
2018-09-11T23:16:33.334Z,64.20
2018-09-11T23:19:01.558Z,64.40
2018-09-11T23:21:29.799Z,64.60
2018-09-11T23:23:58.029Z,64.80
2018-09-11T23:26:26.261Z,65.00
2018-09-11T23:28:54.515Z,65.20
2018-09-11T23:31:22.757Z,66.10
2018-09-11T23:33:51.044Z,65.10
2018-09-11T23:36:19.436Z,65.10
2018-09-11T23:38:47.822Z,65.20
2018-09-11T23:41:16.175Z,65.60
2018-09-11T23:43:45.152Z,65.60
2018-09-11T23:46:13.389Z,65.80
2018-09-11T23:48:41.674Z,66.00
2018-09-11T23:51:09.931Z,66.60
2018-09-11T23:53:38.162Z,66.40
2018-09-11T23:56:06.590Z,66.20
2018-09-11T23:58:34.826Z,66.10
